createdAt,value
2019-04-03T00:02:07.002Z,6.70
2019-04-03T00:04:36.250Z,7.10
2019-04-03T00:07:05.524Z,6.80
2019-04-03T00:09:38.142Z,7.30
2019-04-03T00:12:08.673Z,7.20
2019-04-03T00:14:38.878Z,6.70
2019-04-03T00:17:07.664Z,6.90
2019-04-03T00:19:38.448Z,7.50
2019-04-03T00:22:07.328Z,8.10
2019-04-03T00:24:36.268Z,8.40
2019-04-03T00:27:05.124Z,8.60
2019-04-03T00:29:35.703Z,8.80
2019-04-03T00:32:04.694Z,9.20
2019-04-03T00:34:35.305Z,9.10
2019-04-03T00:37:04.429Z,8.80
2019-04-03T00:39:34.624Z,7.90
2019-04-03T00:42:03.600Z,7.40
2019-04-03T00:44:32.464Z,7.30
2019-04-03T00:47:05.233Z,7.00
2019-04-03T00:49:38.624Z,7.20
2019-04-03T00:52:04.810Z,6.60
2019-04-03T00:54:34.487Z,6.90
2019-04-03T00:57:05.866Z,7.50
2019-04-03T00:59:34.768Z,7.40
2019-04-03T01:02:04.258Z,7.90
2019-04-03T01:04:34.524Z,7.50
2019-04-03T01:07:03.467Z,8.00
2019-04-03T01:09:32.369Z,8.30
2019-04-03T01:12:01.324Z,7.60
2019-04-03T01:14:31.633Z,7.60
2019-04-03T01:17:03.732Z,7.70
2019-04-03T01:19:31.819Z,7.50
2019-04-03T01:22:01.838Z,7.60
2019-04-03T01:24:31.195Z,7.30
2019-04-03T01:27:00.952Z,7.10
2019-04-03T01:29:29.842Z,7.40
2019-04-03T01:31:58.680Z,7.50
2019-04-03T01:34:27.871Z,6.60
2019-04-03T01:36:57.997Z,6.30
2019-04-03T01:39:45.583Z,6.50
2019-04-03T01:42:15.415Z,7.30
2019-04-03T01:44:47.079Z,7.20
2019-04-03T01:47:15.974Z,7.60
2019-04-03T01:49:48.332Z,8.30
2019-04-03T01:52:17.256Z,8.70
2019-04-03T01:54:46.905Z,8.70
2019-04-03T01:57:16.489Z,8.00
2019-04-03T01:59:45.317Z,7.70
2019-04-03T02:02:14.217Z,6.70
2019-04-03T02:05:01.346Z,6.50
2019-04-03T02:07:30.236Z,7.10
2019-04-03T02:09:59.010Z,7.40
2019-04-03T02:12:28.667Z,7.70
2019-04-03T02:14:57.554Z,7.70
2019-04-03T02:17:26.651Z,7.20
2019-04-03T02:19:56.607Z,7.70
2019-04-03T02:22:26.000Z,7.70
2019-04-03T02:24:54.806Z,7.60
2019-04-03T02:27:23.592Z,7.80
2019-04-03T02:29:52.387Z,7.50
2019-04-03T02:32:23.135Z,7.50
2019-04-03T02:34:51.718Z,7.40
2019-04-03T02:37:20.637Z,7.20
2019-04-03T02:39:49.630Z,7.50
2019-04-03T02:42:18.467Z,8.00
2019-04-03T02:44:50.945Z,8.10
2019-04-03T02:47:19.604Z,7.70
2019-04-03T02:49:50.197Z,7.70
2019-04-03T02:52:24.076Z,7.80
2019-04-03T02:54:52.952Z,7.80
2019-04-03T02:57:21.909Z,7.90
2019-04-03T02:59:52.097Z,7.30
2019-04-03T03:02:33.315Z,7.90
2019-04-03T03:05:02.468Z,8.50
2019-04-03T03:07:35.856Z,8.80
2019-04-03T03:10:04.730Z,8.60
2019-04-03T03:12:34.539Z,9.10
2019-04-03T03:15:06.332Z,8.80
2019-04-03T03:17:58.343Z,8.70
2019-04-03T03:20:29.459Z,8.50
2019-04-03T03:22:58.530Z,8.10
2019-04-03T03:25:27.817Z,7.90
2019-04-03T03:27:57.988Z,7.90
2019-04-03T03:30:38.883Z,7.50
2019-04-03T03:33:23.158Z,8.00
2019-04-03T03:35:39.127Z,7.90
2019-04-03T03:38:01.744Z,6.90
2019-04-03T03:40:30.972Z,6.90
2019-04-03T03:43:05.379Z,7.70
2019-04-03T03:45:33.113Z,7.60
2019-04-03T03:48:02.688Z,7.60
2019-04-03T03:50:34.545Z,7.20
2019-04-03T03:53:03.500Z,7.30
2019-04-03T03:55:33.234Z,7.40
2019-04-03T03:58:03.276Z,7.20
2019-04-03T04:00:33.722Z,7.40
2019-04-03T04:03:04.305Z,6.60
2019-04-03T04:05:33.130Z,6.20
2019-04-03T04:08:02.147Z,5.90
2019-04-03T04:10:36.514Z,5.80
2019-04-03T04:13:06.318Z,6.20
2019-04-03T04:15:35.829Z,6.80
2019-04-03T04:18:04.984Z,6.30
2019-04-03T04:20:36.601Z,6.70
2019-04-03T04:23:08.407Z,7.10
2019-04-03T04:25:38.116Z,7.30
2019-04-03T04:28:09.174Z,7.20
2019-04-03T04:30:37.637Z,7.10
2019-04-03T04:33:07.687Z,7.20
2019-04-03T04:35:36.597Z,7.20
2019-04-03T04:38:57.356Z,7.00
2019-04-03T04:41:28.168Z,6.80
2019-04-03T04:43:57.010Z,7.50
2019-04-03T04:46:25.851Z,7.80
2019-04-03T04:48:54.671Z,7.60
2019-04-03T04:51:23.886Z,7.60
2019-04-03T04:53:54.175Z,7.30
2019-04-03T04:56:23.117Z,7.40
2019-04-03T04:58:51.996Z,7.70
2019-04-03T05:01:21.108Z,7.80
2019-04-03T05:03:54.131Z,8.20
2019-04-03T05:06:32.155Z,8.60
2019-04-03T05:09:03.937Z,8.80
2019-04-03T05:11:34.468Z,9.10
2019-04-03T05:14:03.631Z,8.70
2019-04-03T05:16:32.865Z,8.70
2019-04-03T05:19:09.758Z,8.20
2019-04-03T05:21:32.444Z,7.60
2019-04-03T05:24:11.596Z,7.00
2019-04-03T05:26:33.342Z,6.70
2019-04-03T05:29:03.009Z,6.90
2019-04-03T05:31:32.776Z,7.20
2019-04-03T05:34:01.739Z,7.60
2019-04-03T05:36:32.002Z,7.80
2019-04-03T05:39:02.735Z,7.80
2019-04-03T05:41:32.708Z,7.60
2019-04-03T05:44:02.467Z,7.60
2019-04-03T05:46:33.311Z,7.40
2019-04-03T05:49:02.335Z,7.90
2019-04-03T05:51:32.575Z,7.20
2019-04-03T05:54:02.576Z,6.90
2019-04-03T05:56:31.719Z,7.30
2019-04-03T05:59:02.632Z,7.10
2019-04-03T06:01:31.346Z,7.30
2019-04-03T06:04:00.131Z,7.30
2019-04-03T06:06:28.929Z,6.90
2019-04-03T06:08:57.829Z,7.10
2019-04-03T06:11:27.135Z,6.70
2019-04-03T06:13:56.381Z,6.40
2019-04-03T06:16:28.408Z,6.70
2019-04-03T06:21:47.634Z,7.30
2019-04-03T06:24:19.650Z,6.90
2019-04-03T06:26:54.347Z,7.00
2019-04-03T06:32:56.683Z,6.50
2019-04-03T06:35:26.537Z,6.60
2019-04-03T06:38:00.160Z,6.80
2019-04-03T06:40:56.120Z,6.40
2019-04-03T06:43:30.448Z,6.50
2019-04-03T06:45:59.167Z,6.10
2019-04-03T06:48:31.990Z,5.50
2019-04-03T06:51:00.998Z,6.40
2019-04-03T06:53:34.807Z,6.30
2019-04-03T06:56:09.672Z,6.30
2019-04-03T06:58:40.193Z,6.50
2019-04-03T07:01:09.610Z,6.70
2019-04-03T07:03:39.602Z,6.70
2019-04-03T07:06:12.716Z,6.50
2019-04-03T07:08:43.930Z,5.80
2019-04-03T07:11:23.105Z,5.70
2019-04-03T07:13:44.964Z,5.90
2019-04-03T07:16:16.056Z,6.10
2019-04-03T07:18:47.583Z,5.90
2019-04-03T07:21:16.796Z,6.00
2019-04-03T07:24:05.425Z,5.90
2019-04-03T07:26:35.676Z,5.70
2019-04-03T07:29:11.885Z,5.70
2019-04-03T07:31:41.675Z,6.40
2019-04-03T07:34:29.156Z,6.50
2019-04-03T07:37:00.445Z,7.00
2019-04-03T07:39:30.505Z,7.50
2019-04-03T07:42:02.089Z,7.50
2019-04-03T07:44:40.855Z,7.40
2019-04-03T07:47:10.009Z,6.80
2019-04-03T07:55:30.468Z,7.20
2019-04-03T07:58:03.077Z,6.50
2019-04-03T08:00:39.177Z,6.90
2019-04-03T08:03:11.455Z,6.50
2019-04-03T08:05:44.825Z,6.50
2019-04-03T08:11:05.881Z,6.80
2019-04-03T08:13:37.391Z,6.80
2019-04-03T08:16:06.533Z,7.40
2019-04-03T08:18:35.759Z,7.50
2019-04-03T08:21:11.173Z,7.80
2019-04-03T08:23:45.514Z,7.70
2019-04-03T08:26:18.513Z,7.60
2019-04-03T08:28:53.259Z,7.80
2019-04-03T08:31:28.190Z,8.10
2019-04-03T08:33:59.583Z,8.80
2019-04-03T08:36:32.506Z,8.00
2019-04-03T08:39:02.228Z,8.30
2019-04-03T08:41:36.692Z,7.70
2019-04-03T08:44:11.244Z,7.60
2019-04-03T08:46:43.008Z,6.50
2019-04-03T08:49:19.345Z,6.50
2019-04-03T08:55:35.341Z,7.10
2019-04-03T09:13:01.234Z,8.50
2019-04-03T09:15:44.100Z,7.70
2019-04-03T09:18:19.549Z,7.10
2019-04-03T09:20:51.764Z,7.00
2019-04-03T09:23:24.721Z,7.60
2019-04-03T09:25:57.329Z,7.10
2019-04-03T09:28:29.809Z,7.60
2019-04-03T09:31:03.053Z,6.70
2019-04-03T09:33:36.250Z,6.50
2019-04-03T09:36:08.022Z,7.00
2019-04-03T09:38:41.520Z,7.90
2019-04-03T09:41:12.462Z,7.30
2019-04-03T09:43:42.051Z,7.40
2019-04-03T09:46:20.460Z,7.40
2019-04-03T09:48:50.665Z,7.40
2019-04-03T09:51:22.362Z,7.40
2019-04-03T09:53:53.242Z,7.70
2019-04-03T09:56:22.491Z,6.90
2019-04-03T09:58:55.416Z,7.70
2019-04-03T10:04:21.323Z,8.60
2019-04-03T10:06:48.795Z,9.00
2019-04-03T10:09:21.212Z,9.10
2019-04-03T10:11:52.548Z,8.50
2019-04-03T10:14:23.986Z,8.60
2019-04-03T10:16:55.118Z,9.20
2019-04-03T10:19:25.547Z,8.90
2019-04-03T10:22:01.808Z,9.10
2019-04-03T10:24:33.797Z,9.00
2019-04-03T10:27:06.748Z,9.10
2019-04-03T10:29:37.786Z,9.80
2019-04-03T10:50:45.943Z,8.70
2019-04-03T10:53:17.898Z,9.20
2019-04-03T10:55:59.318Z,9.40
2019-04-03T10:58:43.897Z,8.20
2019-04-03T11:07:33.824Z,9.00
2019-04-03T11:10:26.970Z,9.90
2019-04-03T11:16:07.070Z,9.30
2019-04-03T11:18:57.137Z,9.60
2019-04-03T11:21:16.229Z,9.60
2019-04-03T11:50:44.366Z,14.40
2019-04-03T11:56:07.534Z,14.20
2019-04-03T12:07:29.400Z,13.70
2019-04-03T12:12:57.148Z,13.90
2019-04-03T12:15:41.194Z,14.50
2019-04-03T12:30:10.492Z,14.20
2019-04-03T14:30:33.871Z,13.00
2019-04-03T14:43:12.289Z,12.40
2019-04-03T15:08:05.639Z,16.60
2019-04-03T15:10:43.941Z,17.30
2019-04-03T15:13:20.388Z,17.20
2019-04-03T15:15:54.927Z,16.00
2019-04-03T15:21:26.325Z,15.40
2019-04-03T15:30:18.301Z,19.30
2019-04-03T15:33:08.973Z,20.20
2019-04-03T15:35:53.298Z,21.20
2019-04-03T15:38:25.633Z,22.10
2019-04-03T15:40:58.265Z,20.80
2019-04-03T15:43:27.990Z,20.00
2019-04-03T15:45:58.429Z,18.50
2019-04-03T15:48:29.618Z,17.90
2019-04-03T15:51:01.622Z,17.40
2019-04-03T15:53:35.720Z,16.40
2019-04-03T15:56:15.550Z,15.40
2019-04-03T15:58:46.997Z,15.20
2019-04-03T16:01:23.202Z,15.40
2019-04-03T16:03:59.086Z,15.10
2019-04-03T16:06:35.476Z,14.30
2019-04-03T16:09:10.711Z,14.40
2019-04-03T16:11:40.072Z,14.00
2019-04-03T16:14:31.879Z,13.70
2019-04-03T16:17:13.475Z,13.40
2019-04-03T16:19:45.094Z,14.00
2019-04-03T16:22:16.124Z,14.30
2019-04-03T16:24:45.772Z,14.20
2019-04-03T16:27:15.079Z,14.10
2019-04-03T16:29:49.198Z,14.30
2019-04-03T16:32:26.917Z,13.70
2019-04-03T16:35:19.684Z,13.30
2019-04-03T16:38:11.548Z,13.70
2019-04-03T16:40:42.485Z,14.10
2019-04-03T16:43:30.172Z,14.40
2019-04-03T16:46:00.015Z,14.40
2019-04-03T16:48:33.339Z,14.30
2019-04-03T16:51:02.295Z,14.40
2019-04-03T16:53:32.405Z,14.30
2019-04-03T16:56:01.640Z,14.30
2019-04-03T16:58:32.257Z,14.10
2019-04-03T17:01:02.088Z,13.90
2019-04-03T17:03:33.760Z,12.90
2019-04-03T17:06:05.266Z,9.80
2019-04-03T17:08:34.198Z,9.90
2019-04-03T17:11:03.730Z,9.70
2019-04-03T17:13:33.976Z,9.60
2019-04-03T17:16:07.834Z,9.80
2019-04-03T17:18:38.822Z,10.00
2019-04-03T17:21:11.361Z,10.00
2019-04-03T17:23:45.541Z,10.10
2019-04-03T17:26:16.845Z,10.20
2019-04-03T17:29:00.452Z,10.50
2019-04-03T17:31:23.622Z,10.80
2019-04-03T17:33:52.324Z,10.70
2019-04-03T17:36:26.776Z,10.20
2019-04-03T17:38:56.627Z,9.60
2019-04-03T17:41:26.936Z,9.80
2019-04-03T22:03:50.572Z,9.20
